Time;durP1;ratioP1;P1;durP2;ratioP2;P2;SDS_P1;SDS_P2;PMS_P1;PMS_P2;Temp;Humidity;BMP_temperature;BMP_pressure;BME280_temperature;BME280_humidity;BME280_pressure;Samples;Min_cycle;Max_cycle;Signal;HPM_P1;HPM_P2
2023/12/28 08:18:01;;;;;;;4.25;2.72;;;;;;;11.56;33.02;95342.13;6165884;23;20028;-86
2023/12/28 08:20:27;;;;;;;3.38;2.50;;;;;;;11.79;32.69;95338.59;6133368;23;20040;-86
2023/12/28 08:22:52;;;;;;;2.95;1.67;;;;;;;11.74;33.42;95339.94;6108738;23;20009;-86
2023/12/28 08:25:18;;;;;;;1.92;1.40;;;;;;;11.99;31.97;95349.28;6157922;23;20061;-86
2023/12/28 10:26:04;;;;;;;1.98;1.55;;;;;;;11.68;39.19;95322.44;6165059;23;20029;-86
2023/12/28 10:28:34;;;;;;;3.45;2.30;;;;;;;11.54;41.22;95339.69;6153542;23;20075;-85
2023/12/28 10:31:01;;;;;;;5.90;3.58;;;;;;;11.42;41.31;95338.50;6129407;23;20005;-86
2023/12/28 10:33:26;;;;;;;2.00;1.80;;;;;;;11.58;40.53;95332.31;6129405;23;20120;-85
2023/12/28 10:35:52;;;;;;;3.08;1.80;;;;;;;11.60;39.20;95334.75;6129043;23;20034;-85
2023/12/28 10:38:19;;;;;;;4.07;1.90;;;;;;;11.62;37.97;95349.22;6128899;23;20009;-85
2023/12/28 10:40:45;;;;;;;3.35;1.60;;;;;;;11.69;38.13;95350.09;6128606;23;20005;-85
2023/12/28 10:43:15;;;;;;;1.52;1.23;;;;;;;11.37;37.49;95335.66;6104934;23;20009;-85
2023/12/28 10:45:43;;;;;;;1.75;1.50;;;;;;;11.03;37.90;95336.97;6129870;23;20025;-84
2023/12/28 10:48:11;;;;;;;2.80;1.60;;;;;;;10.68;39.16;95351.41;6129802;23;20014;-84
2023/12/28 10:50:40;;;;;;;2.17;1.60;;;;;;;11.31;37.77;95358.00;6129710;23;20005;-84
2023/12/28 10:53:37;;;;;;;2.40;1.60;;;;;;;10.77;37.38;95342.56;6128962;23;20006;-84
2023/12/28 10:56:28;;;;;;;2.72;1.83;;;;;;;10.47;39.06;95345.06;6129127;23;20069;-84
2023/12/28 10:59:04;;;;;;;2.95;1.50;;;;;;;10.42;38.19;95336.19;6128822;23;20005;-85
2023/12/28 11:01:37;;;;;;;1.60;1.30;;;;;;;10.66;38.53;95342.97;6129136;23;20006;-85
2023/12/28 11:04:10;;;;;;;1.65;1.20;;;;;;;10.51;39.68;95343.75;6128810;23;20001;-84
2023/12/28 11:06:36;;;;;;;3.03;1.20;;;;;;;10.51;38.47;95333.34;6127549;23;20062;-85
2023/12/28 11:11:38;;;;;;;2.58;1.38;;;;;;;10.92;37.21;95333.00;6213603;23;20027;-84
2023/12/28 11:14:06;;;;;;;2.05;1.10;;;;;;;11.28;35.62;95332.31;6163177;23;20009;-85
2023/12/28 11:16:33;;;;;;;1.50;1.00;;;;;;;11.39;35.84;95332.88;6164010;23;20035;-85
2023/12/28 11:18:59;;;;;;;2.00;1.40;;;;;;;11.45;37.29;95332.16;6188019;23;20060;-84
2023/12/28 11:21:26;;;;;;;1.30;1.08;;;;;;;11.43;37.99;95324.50;6137122;23;20012;-85
2023/12/28 11:26:28;;;;;;;1.00;0.90;;;;;;;11.66;35.03;95308.78;6178433;23;20029;-84
2023/12/28 11:29:04;;;;;;;1.60;1.00;;;;;;;11.68;37.81;95296.38;6133326;23;20009;-85
2023/12/28 11:31:35;;;;;;;1.45;1.17;;;;;;;11.81;38.94;95305.34;6157637;23;20024;-84
2023/12/28 11:34:03;;;;;;;1.33;0.90;;;;;;;11.88;38.04;95290.56;6157798;23;20005;-85
2023/12/28 11:36:40;;;;;;;1.85;1.00;;;;;;;11.95;38.25;95306.34;6157922;23;20028;-84
2023/12/28 11:41:36;;;;;;;1.33;1.10;;;;;;;12.13;37.21;95297.09;6186187;23;20016;-84
2023/12/28 11:44:04;;;;;;;2.35;1.15;;;;;;;12.27;38.78;95298.03;6186816;23;20071;-85
2023/12/28 11:46:30;;;;;;;2.42;1.27;;;;;;;12.20;39.87;95307.59;6186947;23;20004;-85
2023/12/28 11:49:07;;;;;;;1.20;1.08;;;;;;;12.15;39.25;95289.09;6187064;23;20008;-85
2023/12/28 11:51:34;;;;;;;2.45;1.00;;;;;;;12.31;37.47;95294.06;6162340;23;20028;-84
2023/12/28 11:54:03;;;;;;;1.13;1.00;;;;;;;12.44;35.32;95285.56;6187224;23;20001;-84
2023/12/28 11:56:33;;;;;;;1.30;1.02;;;;;;;12.63;34.82;95283.31;6163163;23;20005;-84
2023/12/28 11:59:00;;;;;;;1.13;0.90;;;;;;;12.63;34.18;95289.34;6187634;23;20016;-84
2023/12/28 12:01:25;;;;;;;3.08;1.00;;;;;;;12.70;34.69;95276.34;6161185;23;20012;-84
2023/12/28 12:03:51;;;;;;;1.33;0.95;;;;;;;12.52;34.67;95277.59;6186578;23;20027;-85
2023/12/28 12:06:19;;;;;;;1.30;0.80;;;;;;;12.63;35.54;95275.50;6187828;23;20011;-85
2023/12/28 12:08:47;;;;;;;1.45;0.88;;;;;;;12.85;34.65;95287.50;6186405;23;20039;-84
2023/12/28 12:11:13;;;;;;;1.30;0.90;;;;;;;12.98;34.31;95294.59;6160995;23;20013;-85
2023/12/28 12:13:38;;;;;;;1.27;1.00;;;;;;;12.94;34.06;95289.97;6161009;23;20015;-85
2023/12/28 12:16:05;;;;;;;1.60;1.10;;;;;;;12.76;33.27;95277.41;6185611;23;20005;-85
2023/12/28 12:23:35;;;;;;;1.45;1.00;;;;;;;13.20;32.51;95274.47;6181747;23;20040;-84
2023/12/28 12:26:00;;;;;;;1.30;0.82;;;;;;;13.24;32.80;95273.09;6156775;23;20005;-84
2023/12/28 12:28:26;;;;;;;1.67;0.95;;;;;;;13.35;33.29;95277.00;6107510;23;20100;-85
2023/12/28 12:30:58;;;;;;;1.88;1.10;;;;;;;13.48;33.32;95289.34;6132142;23;20013;-85
2023/12/28 12:33:26;;;;;;;2.60;0.90;;;;;;;13.57;33.89;95285.53;6132014;23;20048;-84
2023/12/28 12:35:52;;;;;;;0.98;0.80;;;;;;;13.40;34.57;95279.03;6132467;23;20035;-84
2023/12/28 12:38:17;;;;;;;3.42;1.10;;;;;;;13.46;34.15;95262.56;6107712;23;20005;-85
2023/12/28 12:40:43;;;;;;;1.30;0.85;;;;;;;13.78;32.90;95270.75;6132183;23;20036;-84
2023/12/28 12:43:09;;;;;;;1.60;0.80;;;;;;;14.03;30.65;95264.00;6130775;23;20009;-84
2023/12/28 12:45:36;;;;;;;1.35;1.10;;;;;;;14.15;31.67;95279.09;6130414;23;20051;-85
2023/12/28 12:48:05;;;;;;;2.10;0.90;;;;;;;14.07;32.59;95280.09;6156268;23;20009;-85
2023/12/28 12:50:35;;;;;;;1.90;1.00;;;;;;;14.15;31.68;95284.34;6157656;23;20059;-84
2023/12/28 12:53:04;;;;;;;1.30;1.10;;;;;;;14.19;33.16;95275.09;6132421;23;20009;-84
2023/12/28 12:55:29;;;;;;;1.70;1.10;;;;;;;14.21;32.67;95281.72;6156680;23;20036;-84
2023/12/28 13:03:20;;;;;;;1.77;1.15;;;;;;;14.17;31.89;95282.31;6181593;23;20025;-84
2023/12/28 13:05:52;;;;;;;1.65;1.17;;;;;;;14.16;30.83;95275.47;6156794;23;20017;-84
2023/12/28 13:08:18;;;;;;;1.25;1.05;;;;;;;14.30;33.88;95281.53;6155985;23;20084;-85
2023/12/28 13:10:45;;;;;;;2.72;1.30;;;;;;;14.14;32.08;95290.56;6156221;23;20019;-84
2023/12/28 13:25:46;;;;;;;1.48;1.10;;;;;;;14.20;33.04;95269.66;6207782;23;20025;-85
2023/12/28 13:28:13;;;;;;;2.50;1.52;;;;;;;14.30;30.80;95274.50;6186367;23;20009;-85
2023/12/28 13:56:01;;;;;;;2.45;1.60;;;;;;;13.93;34.13;95287.06;6196963;23;20036;-85
2023/12/28 13:58:26;;;;;;;3.35;1.70;;;;;;;13.98;33.23;95292.53;6164198;23;20106;-84
2023/12/28 14:00:52;;;;;;;3.13;1.67;;;;;;;13.99;33.62;95307.25;6188052;23;20004;-85
2023/12/28 14:05:54;;;;;;;2.25;1.42;;;;;;;13.79;34.15;95296.69;6154399;23;20029;-84
2023/12/28 14:08:19;;;;;;;2.15;1.70;;;;;;;13.82;33.04;95301.53;6105392;23;20014;-85
2023/12/28 14:10:47;;;;;;;2.20;1.75;;;;;;;13.89;34.00;95310.19;6128839;23;20006;-85
2023/12/28 14:13:12;;;;;;;3.17;1.55;;;;;;;13.91;33.94;95290.91;6128774;23;20008;-84
2023/12/28 14:15:38;;;;;;;3.08;2.05;;;;;;;13.84;32.99;95296.09;6104649;23;20021;-85
2023/12/28 14:30:50;;;;;;;2.67;1.70;;;;;;;13.58;34.77;95286.34;6243573;23;20030;-84
2023/12/28 14:33:16;;;;;;;3.45;2.50;;;;;;;13.76;34.18;95283.19;6193229;23;20012;-85
2023/12/28 14:35:42;;;;;;;6.28;4.00;;;;;;;13.57;35.33;95295.19;6217803;23;20032;-85
2023/12/28 14:38:08;;;;;;;4.13;2.70;;;;;;;13.51;35.95;95288.94;6217868;23;20012;-84
2023/12/28 14:40:33;;;;;;;3.58;2.40;;;;;;;13.52;35.83;95298.38;6218173;23;20022;-85
2023/12/28 14:43:02;;;;;;;3.00;1.98;;;;;;;13.36;36.90;95281.22;6217740;23;20000;-84
2023/12/28 14:47:56;;;;;;;5.80;3.30;;;;;;;13.34;36.07;95292.84;6213030;23;20033;-84
2023/12/28 14:50:22;;;;;;;5.05;2.70;;;;;;;13.25;36.90;95289.56;6162232;23;20249;-85
2023/12/28 14:57:47;;;;;;;3.53;2.22;;;;;;;13.42;35.47;95303.16;6212971;23;20258;-84
2023/12/28 15:00:13;;;;;;;2.97;1.98;;;;;;;13.46;33.91;95299.13;6138129;23;20009;-84
2023/12/28 15:02:39;;;;;;;5.60;3.88;;;;;;;13.40;35.13;95276.41;6162325;23;20009;-85
2023/12/28 15:05:05;;;;;;;5.28;2.97;;;;;;;12.98;35.83;95280.75;6163241;23;20098;-84
2023/12/28 15:07:32;;;;;;;3.42;2.25;;;;;;;12.93;35.81;95280.50;6187795;23;20050;-84
2023/12/28 15:09:58;;;;;;;4.13;2.25;;;;;;;13.22;35.22;95269.84;6161980;23;20009;-85
2023/12/28 15:12:24;;;;;;;3.20;2.17;;;;;;;13.00;37.59;95268.31;6137117;23;20047;-85
2023/12/28 15:14:49;;;;;;;2.70;2.50;;;;;;;12.66;38.69;95277.69;6187642;23;20019;-84
2023/12/28 15:17:15;;;;;;;4.35;2.80;;;;;;;12.55;39.12;95275.63;6187201;23;20009;-85
2023/12/28 15:19:41;;;;;;;3.58;2.53;;;;;;;12.59;38.72;95277.66;6162301;23;20019;-85
2023/12/28 15:22:07;;;;;;;4.82;2.80;;;;;;;12.66;38.34;95260.25;6187410;23;20008;-85
2023/12/28 15:24:33;;;;;;;4.32;2.78;;;;;;;12.39;38.33;95259.22;6137004;23;20023;-84
2023/12/28 15:29:25;;;;;;;4.35;3.03;;;;;;;12.44;38.00;95258.69;6209433;23;20028;-84
2023/12/28 15:31:51;;;;;;;3.42;2.78;;;;;;;12.38;38.32;95249.78;6162608;23;20019;-85
2023/12/28 15:34:17;;;;;;;4.97;3.70;;;;;;;12.36;38.63;95249.19;6187216;23;20013;-85
2023/12/28 15:36:43;;;;;;;9.18;6.05;;;;;;;12.24;38.81;95240.22;6162590;23;20012;-85
2023/12/28 15:39:08;;;;;;;6.78;4.90;;;;;;;12.37;38.69;95234.34;6185865;23;20020;-84
2023/12/28 15:41:34;;;;;;;7.72;4.40;;;;;;;12.40;37.73;95247.00;6186343;23;20019;-84
2023/12/28 15:43:59;;;;;;;5.43;3.65;;;;;;;12.31;38.25;95243.72;6185772;23;20013;-85
2023/12/28 15:46:28;;;;;;;3.45;2.65;;;;;;;12.22;38.26;95237.00;6186631;23;20012;-85
2023/12/28 15:51:19;;;;;;;3.92;3.10;;;;;;;12.17;38.66;95245.41;6209983;23;20080;-85
2023/12/28 15:53:44;;;;;;;4.70;2.60;;;;;;;12.32;37.90;95242.72;6187011;23;20067;-85
2023/12/28 15:56:09;;;;;;;3.50;2.83;;;;;;;12.31;36.96;95231.47;6162032;23;20013;-85
2023/12/28 15:58:35;;;;;;;4.63;3.70;;;;;;;12.33;37.35;95228.69;6186993;23;20092;-85
2023/12/28 16:03:26;;;;;;;6.68;4.80;;;;;;;12.29;38.13;95245.69;6209054;22;20103;-85
2023/12/28 16:05:53;;;;;;;6.30;4.57;;;;;;;12.22;37.66;95229.19;6161877;23;20008;-85
2023/12/28 16:08:19;;;;;;;5.72;4.30;;;;;;;12.02;37.82;95226.41;6162494;23;20023;-84
2023/12/28 16:10:44;;;;;;;6.22;3.00;;;;;;;12.12;37.66;95222.47;6186167;23;20005;-85
2023/12/28 16:13:10;;;;;;;5.70;3.92;;;;;;;12.14;38.23;95230.13;6186638;23;20005;-85
2023/12/28 16:15:37;;;;;;;5.43;4.18;;;;;;;12.27;36.30;95237.25;6215201;22;20035;-85
2023/12/28 16:20:52;;;;;;;4.10;3.17;;;;;;;12.12;38.15;95212.03;6211165;23;20043;-86
2023/12/28 16:23:18;;;;;;;3.92;2.70;;;;;;;11.99;36.78;95209.31;6162582;23;20017;-85
2023/12/28 16:25:43;;;;;;;3.03;2.63;;;;;;;12.29;37.14;95193.53;6186915;23;20011;-86
2023/12/28 16:28:09;;;;;;;3.45;2.60;;;;;;;12.50;37.16;95203.13;6186966;23;20008;-86
2023/12/28 16:30:35;;;;;;;5.20;3.95;;;;;;;12.43;37.19;95204.88;6137461;23;20008;-85
2023/12/28 16:33:00;;;;;;;3.05;2.60;;;;;;;12.13;36.36;95203.25;6162259;23;20132;-87
2023/12/28 16:35:26;;;;;;;4.53;2.30;;;;;;;12.05;37.20;95206.00;6187399;23;20111;-87
